首页
METAR-TAF:

METAR-TAF

机场 :

Powell River, 不列颠哥伦比亚, 加拿大

纬度: 49-50N, 经度: 124-30W, 海拔: 130米

当前天气观测

该预报发布于8小时和33分钟前的03:00 UTC
风速20节,风向东转东南,有时为35节阵风,在东转东北东南之间变化
温度 7°C
湿度 93%
气压 998 hPa
能見度: 4.8公里
阴天层高于700英尺
小雨, 轻雾

METAR: CYPW 180300Z 11020G35KT 070V130 3SM -RA BR OVC007 07/06 A2948 RMK SF8 LAST STFD OBS NEXT OBS 181500 UTC SLP986

时间: 03:33 (11:33 UTC)


TAF: 丢失

超过4000个机场的气象观测和天气预报(METAR&TAF报告)。

可查询的气象台以黄色和红色小点在地图上表示。

将鼠标移到小点上方,可查看气象台名称。

然后点击查看天气观测和预报。

如需切换地图:点击带黑十字的绿色按钮放大地图;点击带横线的绿色按钮缩小地图;或者点击绿色箭头查看邻近地区的地图。


METAR-TAF: